Time;durP1;ratioP1;P1;durP2;ratioP2;P2;SDS_P1;SDS_P2;PMS_P1;PMS_P2;Temp;Humidity;BMP_temperature;BMP_pressure;BME280_temperature;BME280_humidity;BME280_pressure;Samples;Min_cycle;Max_cycle;Signal;HPM_P1;HPM_P2
2022/09/11 00:01:24;;;;;;;;;;;;;;;5.79;100.00;99735.63;6276605;22;19911;-92
2022/09/11 00:03:50;;;;;;;;;;;;;;;5.74;100.00;99737.50;6277184;22;19922;-90
2022/09/11 00:06:16;;;;;;;;;;;;;;;5.79;100.00;99738.25;6277176;22;19919;-89
2022/09/11 00:08:42;;;;;;;;;;;;;;;5.82;100.00;99725.94;6251896;22;19911;-95
2022/09/11 00:11:12;;;;;;;;;;;;;;;5.75;100.00;99736.63;6275739;22;19915;-92
2022/09/11 00:16:32;;;;;;;;;;;;;;;5.87;100.00;99744.22;6278328;22;19922;-93
2022/09/11 00:19:00;;;;;;;;;;;;;;;5.84;100.00;99736.41;6277270;22;19919;-93
2022/09/11 00:21:25;;;;;;;;;;;;;;;5.75;100.00;99739.25;6280739;22;19920;-93
2022/09/11 07:17:41;;;;;;;;;;;;;;;4.77;100.00;99937.41;6170805;22;19923;-85
2022/09/11 07:20:08;;;;;;;;;;;;;;;4.86;100.00;99945.09;6274297;22;19920;-85
2022/09/11 07:22:34;;;;;;;;;;;;;;;4.85;100.00;99943.38;6275676;22;19912;-84
2022/09/11 07:24:59;;;;;;;;;;;;;;;4.83;100.00;99947.75;6275614;22;19921;-84
2022/09/11 07:27:25;;;;;;;;;;;;;;;4.86;100.00;99946.88;6248441;22;19914;-86
2022/09/11 07:29:50;;;;;;;;;;;;;;;4.90;100.00;99943.31;6248751;22;19911;-86
2022/09/11 07:32:15;;;;;;;;;;;;;;;4.97;100.00;99942.28;6247041;22;19915;-86
2022/09/11 07:34:40;;;;;;;;;;;;;;;4.89;100.00;99945.03;6276123;22;19935;-86
2022/09/11 07:37:06;;;;;;;;;;;;;;;4.97;100.00;99941.44;6248375;22;19911;-85
2022/09/11 07:39:31;;;;;;;;;;;;;;;4.89;100.00;99942.41;6249005;22;20623;-86
2022/09/11 07:41:56;;;;;;;;;;;;;;;4.94;100.00;99942.34;6274138;22;20315;-85
2022/09/11 07:44:22;;;;;;;;;;;;;;;4.92;100.00;99946.75;6245871;22;19922;-86
2022/09/11 07:46:47;;;;;;;;;;;;;;;5.01;100.00;99953.59;6274198;22;20062;-86
2022/09/11 07:49:13;;;;;;;;;;;;;;;5.01;100.00;99948.34;6275926;22;20279;-85
2022/09/11 07:51:38;;;;;;;;;;;;;;;5.04;100.00;99958.81;6248432;22;19907;-86
2022/09/11 07:54:03;;;;;;;;;;;;;;;5.04;100.00;99956.19;6274304;22;19994;-86
2022/09/11 07:56:29;;;;;;;;;;;;;;;5.01;100.00;99964.09;6275721;22;19911;-86
2022/09/11 12:56:04;;;;;;;;;;;;;;;4.87;100.00;99949.47;6163159;22;19926;-87
2022/09/11 12:58:40;;;;;;;;;;;;;;;4.80;100.00;99955.69;6278615;22;19921;-87
2022/09/11 13:01:24;;;;;;;;;;;;;;;4.83;100.00;99945.13;6251841;22;20014;-87
2022/09/11 13:04:07;;;;;;;;;;;;;;;4.91;100.00;99947.66;6278532;22;20046;-87
2022/09/11 13:06:39;;;;;;;;;;;;;;;4.87;100.00;99946.84;6277010;22;20342;-86
2022/09/11 13:09:05;;;;;;;;;;;;;;;4.87;100.00;99944.22;6276994;22;19998;-87
2022/09/11 13:11:38;;;;;;;;;;;;;;;4.85;100.00;99935.50;6278515;22;20354;-87
2022/09/11 13:14:05;;;;;;;;;;;;;;;4.89;100.00;99937.16;6278422;22;19911;-87
2022/09/11 13:16:33;;;;;;;;;;;;;;;4.90;100.00;99932.81;6251785;22;19918;-87
2022/09/11 13:19:04;;;;;;;;;;;;;;;4.98;100.00;99935.28;6278597;22;19911;-87
2022/09/11 13:21:34;;;;;;;;;;;;;;;4.97;100.00;99934.41;6278595;22;19911;-86
2022/09/11 13:24:00;;;;;;;;;;;;;;;4.95;100.00;99937.97;6276585;22;19934;-86
2022/09/11 13:26:27;;;;;;;;;;;;;;;4.94;100.00;99925.72;6275445;22;19922;-88
2022/09/11 13:28:55;;;;;;;;;;;;;;;4.90;100.00;99925.78;6275802;22;19964;-87
2022/09/11 13:31:38;;;;;;;;;;;;;;;4.86;100.00;99924.09;6249459;22;19991;-86
2022/09/11 13:34:12;;;;;;;;;;;;;;;4.87;100.00;99923.22;6277047;22;20041;-87
2022/09/11 13:36:38;;;;;;;;;;;;;;;4.90;100.00;99919.69;6249504;22;20331;-87
2022/09/11 13:39:04;;;;;;;;;;;;;;;4.95;100.00;99906.47;6275077;22;19990;-86
2022/09/11 13:41:32;;;;;;;;;;;;;;;4.88;100.00;99903.94;6276687;22;20335;-87
2022/09/11 13:43:58;;;;;;;;;;;;;;;4.87;100.00;99896.94;6276914;22;19938;-86
2022/09/11 13:46:25;;;;;;;;;;;;;;;4.89;100.00;99892.53;6276585;22;19957;-86
2022/09/11 13:48:54;;;;;;;;;;;;;;;4.87;100.00;99886.44;6276664;22;19915;-86
2022/09/11 13:51:23;;;;;;;;;;;;;;;4.87;100.00;99890.84;6276905;22;20243;-87
2022/09/11 13:53:55;;;;;;;;;;;;;;;4.90;100.00;99880.28;6249966;22;20243;-87
2022/09/11 13:56:40;;;;;;;;;;;;;;;4.87;100.00;99875.09;6273272;22;19919;-87
2022/09/11 13:59:24;;;;;;;;;;;;;;;4.93;100.00;99869.72;6276626;22;19939;-86
2022/09/11 14:01:54;;;;;;;;;;;;;;;4.95;100.00;99864.44;6274987;22;19957;-89
2022/09/11 14:04:20;;;;;;;;;;;;;;;4.91;100.00;99867.13;6249457;22;19915;-86
2022/09/11 14:06:46;;;;;;;;;;;;;;;4.99;100.00;99859.09;6276423;22;20341;-87
2022/09/11 14:09:17;;;;;;;;;;;;;;;4.98;100.00;99856.47;6274867;22;20096;-87
2022/09/11 14:11:43;;;;;;;;;;;;;;;4.99;100.00;99855.59;6249206;22;19920;-86
2022/09/11 14:14:17;;;;;;;;;;;;;;;4.99;100.00;99856.47;6274764;22;19915;-87
2022/09/11 14:16:48;;;;;;;;;;;;;;;5.01;100.00;99853.81;6276588;22;19911;-87
2022/09/11 14:19:16;;;;;;;;;;;;;;;4.98;100.00;99843.34;6276431;22;19911;-87
2022/09/11 14:21:45;;;;;;;;;;;;;;;4.96;100.00;99851.25;6249574;22;19918;-87
2022/09/11 14:24:27;;;;;;;;;;;;;;;5.01;100.00;99838.03;6275153;22;20315;-87
2022/09/11 14:26:52;;;;;;;;;;;;;;;4.98;100.00;99840.72;6276334;22;19915;-87
2022/09/11 14:29:27;;;;;;;;;;;;;;;4.97;100.00;99834.63;6276454;22;20378;-90
2022/09/11 14:31:53;;;;;;;;;;;;;;;4.95;100.00;99832.94;6249301;22;19915;-87
2022/09/11 14:34:19;;;;;;;;;;;;;;;4.91;100.00;99839.97;6276378;22;19912;-87
2022/09/11 14:36:47;;;;;;;;;;;;;;;5.02;100.00;99832.75;6276868;22;20292;-86
2022/09/11 14:39:17;;;;;;;;;;;;;;;5.06;100.00;99834.44;6273150;22;19915;-87
2022/09/11 14:41:43;;;;;;;;;;;;;;;5.02;100.00;99831.91;6249404;22;19911;-86
2022/09/11 14:44:16;;;;;;;;;;;;;;;5.01;100.00;99830.16;6276293;22;20323;-87
2022/09/11 14:46:42;;;;;;;;;;;;;;;5.01;100.00;99835.41;6276244;22;20021;-87
2022/09/11 14:49:08;;;;;;;;;;;;;;;5.06;100.00;99823.94;6276303;22;19946;-86
2022/09/11 14:51:34;;;;;;;;;;;;;;;5.01;100.00;99825.81;6276068;22;19918;-87
2022/09/11 14:54:00;;;;;;;;;;;;;;;5.06;100.00;99825.72;6274970;22;19918;-86
2022/09/11 14:56:25;;;;;;;;;;;;;;;5.00;100.00;99834.56;6247309;22;19994;-87
2022/09/11 14:58:53;;;;;;;;;;;;;;;5.06;100.00;99828.34;6249086;22;19911;-88
2022/09/11 15:01:19;;;;;;;;;;;;;;;4.97;100.00;99824.13;6276443;22;19913;-87
2022/09/11 15:03:44;;;;;;;;;;;;;;;5.01;100.00;99822.28;6275745;22;20346;-87
2022/09/11 15:06:13;;;;;;;;;;;;;;;5.03;100.00;99818.75;6276178;22;19918;-87
2022/09/11 15:08:39;;;;;;;;;;;;;;;5.02;100.00;99822.25;6275818;22;19911;-87
2022/09/11 15:11:04;;;;;;;;;;;;;;;5.00;100.00;99813.56;6247347;22;19911;-87
2022/09/11 15:13:30;;;;;;;;;;;;;;;5.02;100.00;99810.91;6276010;22;19918;-86
2022/09/11 15:15:56;;;;;;;;;;;;;;;5.03;100.00;99808.25;6275914;22;19925;-87
2022/09/11 15:18:21;;;;;;;;;;;;;;;4.97;100.00;99813.63;6276074;22;19919;-86
2022/09/11 15:20:46;;;;;;;;;;;;;;;5.05;100.00;99810.84;6275775;22;19911;-87
2022/09/11 15:23:11;;;;;;;;;;;;;;;5.04;100.00;99809.09;6275745;22;20337;-86
2022/09/11 15:25:37;;;;;;;;;;;;;;;4.93;100.00;99805.81;6246977;22;19918;-86
2022/09/11 15:28:02;;;;;;;;;;;;;;;4.96;100.00;99804.00;6275788;22;19965;-86
2022/09/11 15:30:28;;;;;;;;;;;;;;;4.97;100.00;99799.63;6275728;22;19945;-86
2022/09/11 15:32:53;;;;;;;;;;;;;;;4.90;100.00;99797.13;6274296;22;19919;-87
2022/09/11 15:35:19;;;;;;;;;;;;;;;4.90;100.00;99802.38;6276079;22;19919;-86
2022/09/11 15:37:45;;;;;;;;;;;;;;;4.90;100.00;99801.50;6275403;22;20331;-86
2022/09/11 15:40:11;;;;;;;;;;;;;;;4.88;100.00;99796.28;6274583;22;20024;-87
2022/09/11 15:42:37;;;;;;;;;;;;;;;4.89;100.00;99794.53;6275581;22;20346;-87
2022/09/11 15:45:02;;;;;;;;;;;;;;;4.84;100.00;99802.47;6248662;22;19912;-87
2022/09/11 15:47:31;;;;;;;;;;;;;;;4.86;100.00;99799.81;6275167;22;19911;-87
2022/09/11 15:49:57;;;;;;;;;;;;;;;4.90;100.00;99794.50;6275849;22;20265;-88
2022/09/11 15:52:22;;;;;;;;;;;;;;;4.86;100.00;99800.69;6248300;22;20310;-86
2022/09/11 15:54:49;;;;;;;;;;;;;;;4.90;100.00;99802.38;6273986;22;19942;-89
2022/09/11 15:57:15;;;;;;;;;;;;;;;4.94;100.00;99805.78;6248470;22;20274;-87
2022/09/11 15:59:41;;;;;;;;;;;;;;;4.95;100.00;99804.91;6248706;22;19911;-87
2022/09/11 16:02:08;;;;;;;;;;;;;;;4.94;100.00;99807.56;6275542;22;19921;-87
2022/09/11 16:04:34;;;;;;;;;;;;;;;4.95;100.00;99804.91;6248671;22;19919;-87
2022/09/11 16:06:59;;;;;;;;;;;;;;;4.95;100.00;99804.06;6275807;22;19911;-87
2022/09/11 16:09:25;;;;;;;;;;;;;;;5.00;100.00;99799.56;6274030;22;19915;-87
2022/09/11 16:11:53;;;;;;;;;;;;;;;4.93;100.00;99800.56;6275434;22;19923;-86
2022/09/11 16:14:22;;;;;;;;;;;;;;;4.99;100.00;99800.44;6275538;22;19915;-86
2022/09/11 16:16:47;;;;;;;;;;;;;;;4.91;100.00;99801.47;6275519;22;20346;-87
2022/09/11 16:19:17;;;;;;;;;;;;;;;4.92;100.00;99802.34;6275900;22;19912;-87
2022/09/11 16:21:43;;;;;;;;;;;;;;;4.94;100.00;99802.31;6273465;22;19922;-86
2022/09/11 16:24:09;;;;;;;;;;;;;;;4.93;100.00;99800.56;6273851;22;19915;-86
2022/09/11 16:26:38;;;;;;;;;;;;;;;4.89;100.00;99794.53;6274172;22;19970;-87
2022/09/11 16:29:11;;;;;;;;;;;;;;;5.02;100.00;99795.13;6273927;22;19915;-87
2022/09/11 16:31:38;;;;;;;;;;;;;;;4.89;100.00;99790.13;6275465;22;19933;-87
2022/09/11 16:34:04;;;;;;;;;;;;;;;4.94;100.00;99794.44;6273485;22;20337;-86
2022/09/11 16:36:37;;;;;;;;;;;;;;;4.88;100.00;99790.16;6275887;22;20323;-87
2022/09/11 16:39:13;;;;;;;;;;;;;;;4.88;100.00;99788.41;6275216;22;19951;-89
2022/09/11 16:41:43;;;;;;;;;;;;;;;4.89;100.00;99784.88;6275249;22;19977;-86
2022/09/11 16:44:11;;;;;;;;;;;;;;;4.83;100.00;99784.13;6275817;22;19918;-87
2022/09/11 16:46:36;;;;;;;;;;;;;;;4.85;100.00;99780.59;6248088;22;20281;-86
2022/09/11 16:49:02;;;;;;;;;;;;;;;4.93;100.00;99783.06;6248290;22;19922;-86
2022/09/11 16:51:28;;;;;;;;;;;;;;;4.90;100.00;99784.00;6273727;22;19912;-86
2022/09/11 16:53:53;;;;;;;;;;;;;;;4.84;100.00;99791.97;6248419;22;20231;-86
2022/09/11 16:56:20;;;;;;;;;;;;;;;4.85;100.00;99785.84;6246455;22;19916;-87
2022/09/11 16:58:45;;;;;;;;;;;;;;;4.83;100.00;99779.72;6276180;22;19986;-87
2022/09/11 17:01:15;;;;;;;;;;;;;;;4.86;100.00;99782.31;6277484;22;19949;-87
2022/09/11 17:03:41;;;;;;;;;;;;;;;4.91;100.00;99784.84;6250339;22;19915;-86
2022/09/11 17:06:06;;;;;;;;;;;;;;;4.88;100.00;99783.16;6277619;22;19973;-87
2022/09/11 17:08:36;;;;;;;;;;;;;;;4.83;100.00;99779.72;6277153;22;19915;-87
2022/09/11 17:11:03;;;;;;;;;;;;;;;4.79;100.00;99785.97;6248320;22;19926;-86
2022/09/11 17:13:28;;;;;;;;;;;;;;;4.80;100.00;99779.78;6277139;22;19912;-86
2022/09/11 17:15:59;;;;;;;;;;;;;;;4.75;100.00;99765.03;6249586;22;19920;-86
2022/09/11 17:18:24;;;;;;;;;;;;;;;4.72;100.00;99772.09;6276883;22;19961;-87
2022/09/11 17:20:55;;;;;;;;;;;;;;;4.72;100.00;99771.19;6249849;22;19911;-87
2022/09/11 17:23:20;;;;;;;;;;;;;;;4.80;100.00;99750.91;6276998;22;19942;-86
2022/09/11 17:25:46;;;;;;;;;;;;;;;4.75;100.00;99755.41;6273646;22;19922;-86
2022/09/11 17:28:11;;;;;;;;;;;;;;;4.72;100.00;99750.19;6277365;22;19915;-86
2022/09/11 17:30:37;;;;;;;;;;;;;;;4.75;100.00;99754.53;6275304;22;19918;-87
2022/09/11 17:33:03;;;;;;;;;;;;;;;4.69;100.00;99748.53;6275479;22;20345;-84
2022/09/11 17:35:28;;;;;;;;;;;;;;;4.72;100.00;99744.97;6276537;22;19911;-86
2022/09/11 17:51:22;;;;;;;;;;;;;;;4.69;100.00;99750.25;6271383;22;19926;-90
2022/09/11 17:54:00;;;;;;;;;;;;;;;4.71;100.00;99741.47;6251006;22;19951;-91
2022/09/11 17:56:27;;;;;;;;;;;;;;;4.75;100.00;99744.03;6273333;22;19915;-86
2022/09/11 17:58:54;;;;;;;;;;;;;;;4.75;100.00;99742.28;6274350;22;19917;-89
2022/09/11 18:01:19;;;;;;;;;;;;;;;4.70;100.00;99746.75;6275262;22;19990;-86
2022/09/11 18:03:49;;;;;;;;;;;;;;;4.69;100.00;99747.63;6273013;22;20283;-86
2022/09/11 18:06:16;;;;;;;;;;;;;;;4.70;100.00;99749.38;6276317;22;19919;-86
2022/09/11 18:08:42;;;;;;;;;;;;;;;4.73;100.00;99738.81;6276973;22;19912;-87
2022/09/11 18:11:08;;;;;;;;;;;;;;;4.70;100.00;99746.75;6273131;22;19915;-86
2022/09/11 18:13:33;;;;;;;;;;;;;;;4.74;100.00;99743.19;6275596;22;20346;-86
2022/09/11 18:15:59;;;;;;;;;;;;;;;4.67;100.00;99744.19;6275239;22;19916;-87
2022/09/11 18:18:24;;;;;;;;;;;;;;;4.74;100.00;99748.44;6274647;22;19919;-85
2022/09/11 18:20:53;;;;;;;;;;;;;;;4.65;100.00;99748.59;6276187;22;19915;-86
2022/09/11 18:23:21;;;;;;;;;;;;;;;4.77;100.00;99752.75;6274378;22;19911;-84
2022/09/11 18:25:46;;;;;;;;;;;;;;;4.70;100.00;99747.59;6274291;22;19922;-85
2022/09/11 18:28:11;;;;;;;;;;;;;;;4.73;100.00;99744.06;6276053;22;19911;-85
2022/09/11 18:30:43;;;;;;;;;;;;;;;4.73;100.00;99752.81;6276429;22;19915;-87
2022/09/11 18:33:09;;;;;;;;;;;;;;;4.68;100.00;99751.19;6272761;22;19915;-86
2022/09/11 18:35:35;;;;;;;;;;;;;;;4.73;100.00;99751.94;6274257;22;19919;-86
2022/09/11 18:38:00;;;;;;;;;;;;;;;4.73;100.00;99755.44;6274206;22;19912;-87
2022/09/11 18:40:25;;;;;;;;;;;;;;;4.75;100.00;99755.41;6274801;22;20433;-87
2022/09/11 18:43:01;;;;;;;;;;;;;;;4.69;100.00;99756.41;6273374;22;19926;-85
2022/09/11 18:45:29;;;;;;;;;;;;;;;4.76;100.00;99756.28;6274314;22;19915;-85
2022/09/11 18:47:57;;;;;;;;;;;;;;;4.83;100.00;99750.84;6275933;22;19980;-87
2022/09/11 18:50:27;;;;;;;;;;;;;;;4.71;100.00;99756.38;6275201;22;19990;-89
2022/09/11 18:52:52;;;;;;;;;;;;;;;4.79;100.00;99764.97;6274548;22;19911;-85
2022/09/11 18:55:21;;;;;;;;;;;;;;;4.74;100.00;99769.44;6271766;22;19935;-87
2022/09/11 18:57:47;;;;;;;;;;;;;;;4.78;100.00;99768.47;6274450;22;19990;-86
2022/09/11 19:00:19;;;;;;;;;;;;;;;4.85;100.00;99771.81;6275043;22;20295;-86
2022/09/11 19:02:45;;;;;;;;;;;;;;;4.86;100.00;99774.44;6274738;22;19915;-85
2022/09/11 19:05:12;;;;;;;;;;;;;;;4.80;100.00;99777.16;6274930;22;20361;-85
2022/09/11 19:07:37;;;;;;;;;;;;;;;4.84;100.00;99775.38;6276111;22;20343;-87
2022/09/11 19:10:03;;;;;;;;;;;;;;;4.84;100.00;99770.13;6273443;22;19915;-86
2022/09/11 19:12:28;;;;;;;;;;;;;;;4.75;100.00;99773.78;6274629;22;20278;-86
2022/09/11 19:14:54;;;;;;;;;;;;;;;4.83;100.00;99773.63;6274436;22;19920;-85
2022/09/11 19:17:19;;;;;;;;;;;;;;;4.81;100.00;99781.53;6273767;22;20319;-86
2022/09/11 19:19:45;;;;;;;;;;;;;;;4.78;100.00;99770.25;6275618;22;19965;-85
2022/09/11 19:22:10;;;;;;;;;;;;;;;4.82;100.00;99771.88;6274990;22;19918;-85
2022/09/11 19:24:36;;;;;;;;;;;;;;;4.83;100.00;99773.63;6272156;22;19949;-86
2022/09/11 19:27:01;;;;;;;;;;;;;;;4.77;100.00;99779.00;6275854;22;19915;-85
2022/09/11 19:29:27;;;;;;;;;;;;;;;4.79;100.00;99780.72;6274650;22;19922;-85
2022/09/11 19:31:53;;;;;;;;;;;;;;;4.76;100.00;99778.13;6275056;22;20362;-86
2022/09/11 19:34:19;;;;;;;;;;;;;;;4.77;100.00;99779.00;6275822;22;20315;-85
2022/09/11 19:36:45;;;;;;;;;;;;;;;4.80;100.00;99779.78;6275895;22;19961;-85
2022/09/11 19:39:10;;;;;;;;;;;;;;;4.79;100.00;99779.84;6274266;22;20310;-86
2022/09/11 19:41:36;;;;;;;;;;;;;;;4.81;100.00;99773.66;6275781;22;19916;-85
2022/09/11 19:44:03;;;;;;;;;;;;;;;4.70;100.00;99778.25;6273904;22;19911;-86
2022/09/11 19:46:29;;;;;;;;;;;;;;;4.72;100.00;99777.34;6273934;22;19973;-85
2022/09/11 19:48:55;;;;;;;;;;;;;;;4.80;100.00;99774.53;6273347;22;19954;-86
2022/09/11 19:51:23;;;;;;;;;;;;;;;4.76;100.00;99775.50;6275779;22;19994;-86
2022/09/11 19:53:49;;;;;;;;;;;;;;;4.83;100.00;99777.09;6275514;22;19923;-87
2022/09/11 19:56:27;;;;;;;;;;;;;;;4.77;100.00;99782.50;6274100;22;20315;-87
2022/09/11 19:58:53;;;;;;;;;;;;;;;4.72;100.00;99785.22;6274107;22;19916;-86
2022/09/11 20:01:22;;;;;;;;;;;;;;;4.73;100.00;99794.81;6271810;22;19918;-85
2022/09/11 20:03:57;;;;;;;;;;;;;;;4.73;100.00;99780.81;6274363;22;20323;-85
2022/09/11 20:06:24;;;;;;;;;;;;;;;4.73;100.00;99791.31;6273418;22;19912;-86
2022/09/11 20:08:53;;;;;;;;;;;;;;;4.71;100.00;99788.72;6274107;22;20636;-86
2022/09/11 20:11:20;;;;;;;;;;;;;;;4.74;100.00;99793.06;6272378;22;19915;-86
2022/09/11 20:13:46;;;;;;;;;;;;;;;4.71;100.00;99795.75;6275531;22;19930;-85
2022/09/11 20:16:16;;;;;;;;;;;;;;;4.74;100.00;99790.44;6274360;22;20234;-85
2022/09/11 20:18:42;;;;;;;;;;;;;;;4.76;100.00;99786.00;6275499;22;19996;-86
2022/09/11 20:21:17;;;;;;;;;;;;;;;4.76;100.00;99793.88;6273977;22;20335;-85
2022/09/11 20:23:43;;;;;;;;;;;;;;;4.73;100.00;99797.44;6275212;22;19927;-84
2022/09/11 20:26:11;;;;;;;;;;;;;;;4.74;100.00;99790.44;6272311;22;19915;-85
2022/09/11 20:28:37;;;;;;;;;;;;;;;4.73;100.00;99789.56;6275534;22;19911;-85
2022/09/11 20:31:15;;;;;;;;;;;;;;;4.69;100.00;99793.16;6275500;22;19911;-86
2022/09/11 20:33:41;;;;;;;;;;;;;;;4.66;100.00;99789.69;6276467;22;19911;-85
2022/09/11 20:36:06;;;;;;;;;;;;;;;4.67;100.00;99783.56;6277412;22;19935;-85
2022/09/11 20:38:32;;;;;;;;;;;;;;;4.62;100.00;99781.00;6277494;22;19919;-86
2022/09/11 20:40:57;;;;;;;;;;;;;;;4.69;100.00;99781.75;6274796;22;20319;-86
2022/09/11 20:43:22;;;;;;;;;;;;;;;4.68;100.00;99780.91;6275550;22;19912;-86
2022/09/11 20:45:49;;;;;;;;;;;;;;;4.68;100.00;99786.16;6275889;22;20327;-85
2022/09/11 20:48:15;;;;;;;;;;;;;;;4.64;100.00;99783.63;6277349;22;20368;-85
2022/09/11 20:50:40;;;;;;;;;;;;;;;4.71;100.00;99780.00;6276859;22;19912;-85
2022/09/11 20:53:05;;;;;;;;;;;;;;;4.69;100.00;99787.00;6275977;22;19926;-86
2022/09/11 20:55:31;;;;;;;;;;;;;;;4.71;100.00;99790.50;6274937;22;19926;-85
2022/09/11 20:57:57;;;;;;;;;;;;;;;4.77;100.00;99785.13;6277320;22;19911;-85
2022/09/11 21:00:23;;;;;;;;;;;;;;;4.77;100.00;99784.25;6276708;22;19941;-85
2022/09/11 21:02:48;;;;;;;;;;;;;;;4.71;100.00;99780.00;6277136;22;19920;-85
2022/09/11 21:05:13;;;;;;;;;;;;;;;4.68;100.00;99780.91;6277203;22;20299;-85
2022/09/11 21:07:38;;;;;;;;;;;;;;;4.70;100.00;99786.13;6275863;22;20440;-85
2022/09/11 21:10:04;;;;;;;;;;;;;;;4.70;100.00;99783.50;6275831;22;20388;-85
2022/09/11 21:12:29;;;;;;;;;;;;;;;4.62;100.00;99788.03;6276929;22;19921;-85
2022/09/11 21:14:54;;;;;;;;;;;;;;;4.66;100.00;99787.06;6276811;22;19942;-86
2022/09/11 21:17:20;;;;;;;;;;;;;;;4.67;100.00;99778.31;6277068;22;19922;-85
2022/09/11 21:19:45;;;;;;;;;;;;;;;4.62;100.00;99774.91;6275825;22;19911;-86
2022/09/11 21:22:10;;;;;;;;;;;;;;;4.63;100.00;99768.78;6277217;22;19921;-85
2022/09/11 21:24:36;;;;;;;;;;;;;;;4.65;100.00;99774.84;6274971;22;19911;-85
2022/09/11 21:27:01;;;;;;;;;;;;;;;4.65;100.00;99773.09;6274885;22;19915;-85
2022/09/11 21:29:27;;;;;;;;;;;;;;;4.65;100.00;99766.97;6275445;22;19915;-86
2022/09/11 21:31:52;;;;;;;;;;;;;;;4.63;100.00;99761.75;6250412;22;19918;-86
2022/09/11 21:34:17;;;;;;;;;;;;;;;4.68;100.00;99764.31;6276901;22;19911;-85
2022/09/11 21:36:43;;;;;;;;;;;;;;;4.64;100.00;99752.13;6275210;22;19915;-85
2022/09/11 21:39:08;;;;;;;;;;;;;;;4.69;100.00;99759.03;6275897;22;19912;-86
2022/09/11 21:41:33;;;;;;;;;;;;;;;4.66;100.00;99759.09;6274822;22;20464;-85
2022/09/11 21:43:58;;;;;;;;;;;;;;;4.65;100.00;99753.84;6275064;22;20294;-86
2022/09/11 21:46:24;;;;;;;;;;;;;;;4.67;100.00;99763.41;6276383;22;19965;-86
2022/09/11 21:48:49;;;;;;;;;;;;;;;4.65;100.00;99764.34;6276885;22;19912;-86
2022/09/11 21:51:16;;;;;;;;;;;;;;;4.67;100.00;99755.53;6276509;22;19962;-84
2022/09/11 21:53:42;;;;;;;;;;;;;;;4.67;100.00;99759.94;6275134;22;19942;-87
2022/09/11 21:56:23;;;;;;;;;;;;;;;4.77;100.00;99763.25;6273918;22;19912;-85
2022/09/11 21:58:51;;;;;;;;;;;;;;;4.70;100.00;99759.88;6275192;22;20342;-85
2022/09/11 22:01:19;;;;;;;;;;;;;;;4.73;100.00;99754.56;6276605;22;20212;-85
2022/09/11 22:03:44;;;;;;;;;;;;;;;4.73;100.00;99760.69;6276837;22;19926;-86
2022/09/11 22:06:10;;;;;;;;;;;;;;;4.68;100.00;99769.56;6275458;22;19986;-85
2022/09/11 22:08:40;;;;;;;;;;;;;;;4.69;100.00;99761.66;6276692;22;19914;-87
2022/09/11 22:11:09;;;;;;;;;;;;;;;4.72;100.00;99760.69;6275367;22;19911;-89
2022/09/11 22:13:34;;;;;;;;;;;;;;;4.72;100.00;99768.56;6275483;22;19915;-87
2022/09/11 22:16:03;;;;;;;;;;;;;;;4.77;100.00;99761.50;6276660;22;19911;-86
2022/09/11 22:18:28;;;;;;;;;;;;;;;4.68;100.00;99761.69;6276428;22;19916;-86
2022/09/11 22:20:57;;;;;;;;;;;;;;;4.63;100.00;99760.91;6275053;22;19921;-87
2022/09/11 22:23:22;;;;;;;;;;;;;;;4.68;100.00;99759.91;6276187;22;19911;-87
2022/09/11 22:25:55;;;;;;;;;;;;;;;4.60;100.00;99753.94;6273404;22;20323;-85
2022/09/11 22:28:20;;;;;;;;;;;;;;;4.66;100.00;99753.81;6276483;22;20388;-86
2022/09/11 22:30:46;;;;;;;;;;;;;;;4.69;100.00;99755.50;6276374;22;19911;-90
2022/09/11 22:33:11;;;;;;;;;;;;;;;4.78;100.00;99757.97;6276594;22;19911;-87
2022/09/11 22:35:36;;;;;;;;;;;;;;;4.63;100.00;99753.03;6276414;22;19917;-84
2022/09/11 22:38:02;;;;;;;;;;;;;;;4.64;100.00;99757.38;6275792;22;19926;-85
2022/09/11 22:40:27;;;;;;;;;;;;;;;4.66;100.00;99750.31;6273467;22;20319;-84
2022/09/11 22:42:52;;;;;;;;;;;;;;;4.66;100.00;99750.31;6276263;22;19956;-86
2022/09/11 22:45:17;;;;;;;;;;;;;;;4.70;100.00;99752.00;6274697;22;19911;-86
2022/09/11 22:47:43;;;;;;;;;;;;;;;4.70;100.00;99747.59;6276279;22;19911;-86
2022/09/11 22:50:08;;;;;;;;;;;;;;;4.64;100.00;99749.50;6276237;22;20238;-85
2022/09/11 22:52:36;;;;;;;;;;;;;;;4.65;100.00;99751.22;6274468;22;19926;-85
2022/09/11 22:55:01;;;;;;;;;;;;;;;4.71;100.00;99748.50;6273005;22;19919;-85
2022/09/11 22:57:27;;;;;;;;;;;;;;;4.73;100.00;99749.31;6275339;22;20402;-85
2022/09/11 22:59:52;;;;;;;;;;;;;;;4.66;100.00;99743.34;6276261;22;20247;-85
2022/09/11 23:02:17;;;;;;;;;;;;;;;4.69;100.00;99738.03;6275838;22;20053;-86
2022/09/11 23:07:13;;;;;;;;;;;;;;;4.70;100.00;99744.13;6274472;22;19979;-87
2022/09/11 23:07:28;;;;;;;;;;;;;;;4.69;100.00;99742.38;6275221;22;19915;-86
2022/09/11 23:09:53;;;;;;;;;;;;;;;4.77;100.00;99743.13;6273298;22;19969;-85
2022/09/11 23:12:18;;;;;;;;;;;;;;;4.72;100.00;99744.97;6248563;22;19915;-85
2022/09/11 23:14:44;;;;;;;;;;;;;;;4.65;100.00;99744.22;6273974;22;19969;-86
2022/09/11 23:17:09;;;;;;;;;;;;;;;4.68;100.00;99743.31;6273621;22;19961;-85
2022/09/11 23:19:35;;;;;;;;;;;;;;;4.69;100.00;99742.38;6275895;22;19911;-85
2022/09/11 23:22:00;;;;;;;;;;;;;;;4.64;100.00;99739.00;6275862;22;19911;-86
2022/09/11 23:24:25;;;;;;;;;;;;;;;4.60;100.00;99735.56;6273064;22;20370;-86
2022/09/11 23:26:50;;;;;;;;;;;;;;;4.70;100.00;99731.84;6274217;22;19911;-86
2022/09/11 23:29:16;;;;;;;;;;;;;;;4.66;100.00;99729.31;6275808;22;19915;-85
2022/09/11 23:31:43;;;;;;;;;;;;;;;4.64;100.00;99732.00;6272507;22;20377;-86
2022/09/11 23:34:12;;;;;;;;;;;;;;;4.69;100.00;99730.16;6274181;22;20324;-86
